Time;durP1;ratioP1;P1;durP2;ratioP2;P2;SDS_P1;SDS_P2;PMS_P1;PMS_P2;Temp;Humidity;BMP_temperature;BMP_pressure;BME280_temperature;BME280_humidity;BME280_pressure;Samples;Min_cycle;Max_cycle;Signal;HPM_P1;HPM_P2
2022/04/05 00:01:59;;;;;;;4.50;1.70;;;;;;;;;;5072593;28;20705;-56
2022/04/05 00:04:25;;;;;;;2.80;1.50;;;;;;;;;;5072371;28;20202;-55
2022/04/05 00:06:51;;;;;;;2.80;1.63;;;;;;;;;;5072490;28;20206;-55
2022/04/05 00:09:19;;;;;;;5.27;2.03;;;;;;;;;;5072468;28;20555;-55
2022/04/05 00:11:45;;;;;;;3.50;1.60;;;;;;;;;;5070772;28;20438;-56
2022/04/05 00:14:11;;;;;;;3.13;1.80;;;;;;;;;;5072619;28;20504;-55
2022/04/05 00:16:37;;;;;;;4.07;2.03;;;;;;;;;;5072374;28;20599;-56
2022/04/05 00:19:03;;;;;;;3.07;1.97;;;;;;;;;;5072469;28;20204;-56
2022/04/05 00:21:29;;;;;;;4.13;2.17;;;;;;;;;;5072368;28;20846;-57
2022/04/05 00:23:55;;;;;;;1.87;1.70;;;;;;;;;;5071811;28;20497;-56
2022/04/05 00:26:22;;;;;;;5.30;2.00;;;;;;;;;;5072116;28;20722;-55
2022/04/05 00:28:48;;;;;;;5.27;2.17;;;;;;;;;;5072274;28;20204;-56
2022/04/05 00:31:14;;;;;;;4.97;1.83;;;;;;;;;;5072374;28;20841;-56
2022/04/05 00:33:40;;;;;;;3.37;2.07;;;;;;;;;;5072036;28;20199;-55
2022/04/05 00:36:06;;;;;;;3.00;1.70;;;;;;;;;;5072322;28;20195;-56
2022/04/05 00:38:32;;;;;;;3.13;1.83;;;;;;;;;;5072120;28;20809;-56
2022/04/05 00:40:59;;;;;;;2.80;1.70;;;;;;;;;;5072139;28;20999;-57
2022/04/05 00:43:26;;;;;;;2.33;1.63;;;;;;;;;;5072001;28;20248;-57
2022/04/05 00:45:54;;;;;;;3.57;1.93;;;;;;;;;;5071883;28;20959;-56
2022/04/05 00:48:28;;;;;;;2.67;2.10;;;;;;;;;;5070713;28;20434;-56
2022/04/05 00:50:54;;;;;;;2.60;1.90;;;;;;;;;;5072020;28;20486;-56
2022/04/05 00:53:22;;;;;;;5.00;2.10;;;;;;;;;;5071925;28;20924;-57
2022/04/05 00:55:49;;;;;;;3.87;2.10;;;;;;;;;;5071762;28;20804;-56
2022/04/05 00:58:16;;;;;;;2.93;1.97;;;;;;;;;;5072119;28;20442;-57
2022/04/05 01:00:43;;;;;;;4.17;2.00;;;;;;;;;;5071707;28;20531;-57
2022/04/05 01:03:10;;;;;;;2.87;1.93;;;;;;;;;;5071992;28;20468;-57
2022/04/05 01:05:36;;;;;;;4.27;2.30;;;;;;;;;;5071833;28;20202;-56
2022/04/05 01:08:03;;;;;;;2.10;2.00;;;;;;;;;;5071997;28;20449;-56
2022/04/05 01:10:29;;;;;;;4.17;2.07;;;;;;;;;;5071869;28;20990;-58
2022/04/05 01:12:56;;;;;;;2.40;2.20;;;;;;;;;;5071866;28;20430;-57
2022/04/05 01:15:22;;;;;;;2.97;2.20;;;;;;;;;;5071726;28;20203;-56
2022/04/05 01:17:49;;;;;;;3.40;2.30;;;;;;;;;;5071786;28;20200;-58
2022/04/05 01:20:15;;;;;;;2.80;1.77;;;;;;;;;;5071824;28;20453;-57
2022/04/05 01:22:48;;;;;;;3.37;2.23;;;;;;;;;;5071762;28;20438;-56
2022/04/05 01:25:16;;;;;;;3.13;2.17;;;;;;;;;;5071839;28;20273;-56
2022/04/05 01:27:42;;;;;;;3.10;2.30;;;;;;;;;;5071748;28;20529;-56
2022/04/05 01:30:09;;;;;;;3.53;3.00;;;;;;;;;;5071703;28;20487;-56
2022/04/05 01:32:35;;;;;;;3.17;2.90;;;;;;;;;;5071711;28;20438;-56
2022/04/05 01:35:01;;;;;;;3.60;2.60;;;;;;;;;;5071612;28;20434;-56
2022/04/05 01:37:28;;;;;;;3.67;2.43;;;;;;;;;;5071833;28;20443;-56
2022/04/05 01:39:54;;;;;;;3.23;2.10;;;;;;;;;;5071489;28;20208;-57
2022/04/05 01:42:21;;;;;;;4.83;2.37;;;;;;;;;;5071529;28;20474;-57
2022/04/05 01:44:47;;;;;;;3.07;2.00;;;;;;;;;;5071596;28;20935;-56
2022/04/05 01:47:14;;;;;;;2.07;1.87;;;;;;;;;;5071549;28;20956;-55
2022/04/05 01:49:40;;;;;;;3.87;2.10;;;;;;;;;;5071390;28;20438;-56
2022/04/05 01:52:07;;;;;;;2.83;2.20;;;;;;;;;;5071608;28;20438;-56
2022/04/05 01:54:33;;;;;;;4.40;1.90;;;;;;;;;;5071324;28;20438;-56
2022/04/05 01:56:59;;;;;;;3.23;1.90;;;;;;;;;;5071391;28;20792;-56
2022/04/05 01:59:27;;;;;;;2.57;1.80;;;;;;;;;;5071307;28;20200;-56
2022/04/05 02:01:53;;;;;;;3.73;2.20;;;;;;;;;;5071303;28;20226;-56
2022/04/05 02:04:20;;;;;;;4.10;1.70;;;;;;;;;;5071257;28;20441;-56
2022/04/05 02:06:46;;;;;;;5.80;2.07;;;;;;;;;;5071422;28;20203;-55
2022/04/05 02:09:15;;;;;;;3.53;1.97;;;;;;;;;;5072807;28;20437;-56
2022/04/05 02:11:43;;;;;;;2.87;1.90;;;;;;;;;;5074902;28;20567;-54
2022/04/05 02:14:09;;;;;;;4.93;2.13;;;;;;;;;;5073242;28;20836;-55
2022/04/05 02:16:36;;;;;;;3.30;1.93;;;;;;;;;;5074701;28;20462;-55
2022/04/05 02:19:02;;;;;;;4.90;2.20;;;;;;;;;;5074615;28;20446;-55
2022/04/05 02:21:29;;;;;;;3.03;1.80;;;;;;;;;;5074773;28;20809;-55
2022/04/05 02:23:55;;;;;;;5.40;2.00;;;;;;;;;;5074381;28;20819;-55
2022/04/05 02:26:21;;;;;;;3.87;2.23;;;;;;;;;;5074490;28;20438;-55
2022/04/05 02:28:48;;;;;;;5.87;2.10;;;;;;;;;;5074600;28;20248;-55
2022/04/05 02:31:15;;;;;;;4.40;1.97;;;;;;;;;;5074546;28;20458;-55
2022/04/05 02:33:42;;;;;;;4.90;2.13;;;;;;;;;;5072884;28;20437;-55
2022/04/05 02:36:08;;;;;;;4.77;2.23;;;;;;;;;;5074428;28;20449;-55
2022/04/05 02:38:34;;;;;;;5.27;2.03;;;;;;;;;;5074238;28;20425;-54
2022/04/05 02:41:04;;;;;;;4.10;1.93;;;;;;;;;;5074434;28;20229;-54
2022/04/05 02:43:30;;;;;;;4.53;2.20;;;;;;;;;;5074404;28;20943;-55
2022/04/05 02:45:56;;;;;;;3.27;2.13;;;;;;;;;;5074166;28;20438;-54
2022/04/05 02:48:22;;;;;;;5.90;2.40;;;;;;;;;;5074082;28;20444;-54
2022/04/05 02:50:49;;;;;;;4.03;2.43;;;;;;;;;;5074074;28;20426;-55
2022/04/05 02:53:15;;;;;;;3.20;2.10;;;;;;;;;;5074213;28;20458;-54
2022/04/05 02:55:45;;;;;;;4.13;2.23;;;;;;;;;;5074104;28;20541;-55
2022/04/05 02:58:11;;;;;;;3.40;2.00;;;;;;;;;;5074229;28;20437;-55
2022/04/05 03:00:37;;;;;;;3.60;1.93;;;;;;;;;;5073607;28;20825;-56
2022/04/05 03:03:04;;;;;;;6.40;2.30;;;;;;;;;;5073907;28;20199;-56
2022/04/05 03:05:30;;;;;;;5.13;2.23;;;;;;;;;;5073904;28;20520;-56
2022/04/05 03:07:57;;;;;;;7.30;2.73;;;;;;;;;;5073901;28;20514;-56
2022/04/05 03:10:23;;;;;;;5.37;2.50;;;;;;;;;;5073871;28;20214;-56
2022/04/05 03:12:49;;;;;;;5.60;2.30;;;;;;;;;;5073648;28;20426;-56
2022/04/05 03:15:15;;;;;;;3.33;2.17;;;;;;;;;;5073805;28;20569;-56
2022/04/05 03:17:42;;;;;;;3.80;2.20;;;;;;;;;;5073330;28;20196;-56
2022/04/05 03:20:10;;;;;;;5.30;2.53;;;;;;;;;;5073566;28;20531;-56
2022/04/05 03:22:36;;;;;;;4.27;2.30;;;;;;;;;;5073503;28;20474;-56
2022/04/05 03:25:03;;;;;;;4.73;2.40;;;;;;;;;;5073567;28;20517;-56
2022/04/05 03:27:29;;;;;;;8.33;2.47;;;;;;;;;;5073544;28;20203;-56
2022/04/05 03:29:55;;;;;;;6.20;2.67;;;;;;;;;;5073449;28;20449;-56
2022/04/05 03:32:21;;;;;;;8.07;2.63;;;;;;;;;;5073374;28;20192;-56
2022/04/05 03:34:50;;;;;;;3.20;2.43;;;;;;;;;;5073249;28;20566;-56
2022/04/05 03:37:15;;;;;;;8.13;2.57;;;;;;;;;;5073388;28;20218;-55
2022/04/05 03:39:41;;;;;;;6.77;2.90;;;;;;;;;;5073265;28;20920;-55
2022/04/05 03:42:09;;;;;;;8.03;2.90;;;;;;;;;;5073025;28;20288;-56
2022/04/05 03:44:35;;;;;;;6.50;2.60;;;;;;;;;;5073003;28;20204;-56
2022/04/05 03:47:01;;;;;;;8.60;3.53;;;;;;;;;;5073125;28;20472;-55
2022/04/05 03:49:27;;;;;;;9.10;2.30;;;;;;;;;;5073158;28;20256;-55
2022/04/05 03:51:53;;;;;;;8.00;2.20;;;;;;;;;;5072839;28;20426;-55
2022/04/05 03:54:19;;;;;;;7.30;2.43;;;;;;;;;;5073085;28;20585;-56
2022/04/05 03:56:45;;;;;;;12.03;2.53;;;;;;;;;;5071121;28;20234;-55
2022/04/05 03:59:13;;;;;;;9.90;2.33;;;;;;;;;;5072792;28;20294;-54
2022/04/05 04:01:39;;;;;;;5.60;2.00;;;;;;;;;;5072544;28;20235;-56
2022/04/05 04:04:05;;;;;;;6.13;1.83;;;;;;;;;;5072728;28;20438;-55
2022/04/05 04:06:31;;;;;;;9.57;2.00;;;;;;;;;;5072775;28;20484;-55
2022/04/05 04:08:56;;;;;;;5.70;1.83;;;;;;;;;;5072487;28;20935;-55
2022/04/05 04:11:22;;;;;;;5.57;2.03;;;;;;;;;;5072776;28;20210;-55
2022/04/05 04:13:49;;;;;;;8.63;2.00;;;;;;;;;;5072562;28;20630;-55
2022/04/05 04:16:16;;;;;;;7.13;2.37;;;;;;;;;;5072531;28;20500;-55
2022/04/05 04:18:42;;;;;;;6.03;2.33;;;;;;;;;;5072413;28;20450;-56
2022/04/05 04:21:08;;;;;;;7.63;2.13;;;;;;;;;;5072168;28;20473;-55
2022/04/05 04:23:34;;;;;;;7.63;2.30;;;;;;;;;;5072223;28;20215;-55
2022/04/05 04:26:00;;;;;;;9.50;2.60;;;;;;;;;;5072634;28;20202;-55
2022/04/05 04:28:26;;;;;;;6.43;2.20;;;;;;;;;;5072378;28;20716;-55
2022/04/05 04:30:52;;;;;;;10.87;2.57;;;;;;;;;;5071886;28;20222;-55
2022/04/05 04:33:19;;;;;;;7.17;2.37;;;;;;;;;;5072330;28;20473;-55
2022/04/05 04:35:45;;;;;;;6.17;2.10;;;;;;;;;;5072255;28;20209;-56
2022/04/05 04:38:12;;;;;;;6.10;2.23;;;;;;;;;;5072393;28;20440;-56
2022/04/05 04:40:38;;;;;;;4.50;1.80;;;;;;;;;;5072142;28;20620;-56
2022/04/05 04:43:05;;;;;;;7.63;1.93;;;;;;;;;;5072042;28;20508;-56
2022/04/05 04:45:31;;;;;;;13.40;3.00;;;;;;;;;;5072131;28;20295;-55
2022/04/05 04:47:57;;;;;;;10.00;2.40;;;;;;;;;;5072002;28;20852;-55
2022/04/05 04:50:24;;;;;;;12.40;2.83;;;;;;;;;;5072255;28;20546;-55
2022/04/05 04:52:50;;;;;;;9.07;2.20;;;;;;;;;;5071990;28;20519;-56
2022/04/05 04:55:16;;;;;;;9.53;2.33;;;;;;;;;;5072093;28;20465;-56
2022/04/05 04:57:42;;;;;;;6.27;2.30;;;;;;;;;;5072055;28;20749;-55
2022/04/05 05:00:11;;;;;;;8.50;2.33;;;;;;;;;;5071794;28;20258;-55
2022/04/05 05:02:43;;;;;;;5.93;2.33;;;;;;;;;;5071709;28;20227;-55
2022/04/05 05:05:09;;;;;;;5.73;2.17;;;;;;;;;;5072006;28;20796;-55
2022/04/05 05:07:36;;;;;;;8.63;2.73;;;;;;;;;;5071905;28;20455;-55
2022/04/05 05:10:03;;;;;;;10.67;2.93;;;;;;;;;;5071890;28;20445;-55
2022/04/05 05:12:28;;;;;;;7.57;2.40;;;;;;;;;;5071903;28;20445;-56
2022/04/05 05:14:54;;;;;;;8.30;2.37;;;;;;;;;;5071636;28;20438;-56
2022/04/05 05:17:20;;;;;;;8.23;2.70;;;;;;;;;;5071907;28;20765;-55
2022/04/05 05:19:46;;;;;;;8.07;2.30;;;;;;;;;;5071803;28;20203;-55
2022/04/05 05:22:12;;;;;;;9.43;2.63;;;;;;;;;;5071844;28;20318;-55
2022/04/05 05:24:40;;;;;;;6.43;2.30;;;;;;;;;;5071605;28;20219;-56
2022/04/05 05:27:06;;;;;;;9.47;2.67;;;;;;;;;;5071832;28;20210;-55
2022/04/05 05:29:32;;;;;;;10.47;2.83;;;;;;;;;;5071765;28;20457;-55
2022/04/05 05:31:58;;;;;;;6.23;2.63;;;;;;;;;;5071680;28;20932;-55
2022/04/05 05:34:24;;;;;;;8.23;2.87;;;;;;;;;;5071495;28;20211;-55
2022/04/05 05:36:50;;;;;;;11.23;2.83;;;;;;;;;;5071610;28;20269;-56
2022/04/05 05:39:16;;;;;;;11.70;2.90;;;;;;;;;;5071380;28;20437;-55
2022/04/05 05:41:44;;;;;;;13.13;3.00;;;;;;;;;;5071340;28;20481;-56
2022/04/05 05:44:11;;;;;;;10.23;3.00;;;;;;;;;;5073186;28;20441;-55
2022/04/05 05:46:37;;;;;;;7.83;2.93;;;;;;;;;;5075344;28;20465;-55
2022/04/05 05:49:03;;;;;;;9.83;2.50;;;;;;;;;;5075276;28;20915;-56
2022/04/05 05:51:29;;;;;;;6.30;2.57;;;;;;;;;;5075367;28;20223;-55
2022/04/05 05:53:55;;;;;;;6.40;2.20;;;;;;;;;;5075008;28;20212;-55
2022/04/05 05:56:20;;;;;;;6.70;2.73;;;;;;;;;;5075166;28;20195;-56
2022/04/05 05:58:50;;;;;;;7.80;2.50;;;;;;;;;;5075172;28;20282;-56
2022/04/05 06:01:16;;;;;;;12.83;2.70;;;;;;;;;;5074856;28;20238;-56
2022/04/05 06:03:43;;;;;;;8.30;2.93;;;;;;;;;;5074619;28;20480;-55
2022/04/05 06:06:09;;;;;;;12.47;2.73;;;;;;;;;;5074505;28;20574;-56
2022/04/05 06:08:35;;;;;;;10.50;2.80;;;;;;;;;;5074964;28;20442;-55
2022/04/05 06:11:01;;;;;;;9.23;2.93;;;;;;;;;;5074892;28;20519;-55
2022/04/05 06:13:27;;;;;;;9.70;2.50;;;;;;;;;;5074805;28;20278;-55
2022/04/05 06:15:55;;;;;;;5.90;2.60;;;;;;;;;;5074568;28;20488;-55
2022/04/05 06:18:21;;;;;;;8.20;2.50;;;;;;;;;;5074306;28;20227;-55
2022/04/05 06:20:47;;;;;;;8.00;2.77;;;;;;;;;;5074332;28;20445;-55
2022/04/05 06:23:13;;;;;;;12.67;2.80;;;;;;;;;;5074341;28;20812;-55
2022/04/05 06:25:39;;;;;;;7.63;2.60;;;;;;;;;;5074269;28;20253;-55
2022/04/05 06:28:06;;;;;;;7.07;3.23;;;;;;;;;;5074344;28;20227;-55
2022/04/05 06:30:32;;;;;;;13.00;2.73;;;;;;;;;;5074503;28;20199;-55
2022/04/05 06:33:09;;;;;;;7.57;2.23;;;;;;;;;;5074069;28;20430;-55
2022/04/05 06:35:35;;;;;;;8.27;2.70;;;;;;;;;;5074277;28;20466;-55
2022/04/05 06:38:01;;;;;;;11.23;3.17;;;;;;;;;;5074124;28;20620;-54
2022/04/05 06:40:27;;;;;;;8.43;2.40;;;;;;;;;;5074238;28;20429;-55
2022/04/05 06:42:53;;;;;;;8.10;2.67;;;;;;;;;;5073544;28;20472;-55
2022/04/05 06:45:20;;;;;;;4.73;2.07;;;;;;;;;;5074225;28;20662;-54
2022/04/05 06:47:47;;;;;;;10.53;2.47;;;;;;;;;;5073784;28;20200;-54
2022/04/05 06:50:20;;;;;;;6.67;1.97;;;;;;;;;;5074233;28;20433;-53
2022/04/05 06:52:46;;;;;;;9.17;2.17;;;;;;;;;;5073933;28;20199;-55
2022/04/05 06:55:12;;;;;;;11.90;2.23;;;;;;;;;;5073875;28;20448;-56
2022/04/05 06:57:39;;;;;;;10.37;2.30;;;;;;;;;;5073753;28;20450;-54
2022/04/05 07:00:06;;;;;;;8.70;2.50;;;;;;;;;;5073560;28;20476;-56
2022/04/05 07:02:32;;;;;;;8.73;2.83;;;;;;;;;;5073623;28;20254;-55
2022/04/05 07:04:58;;;;;;;8.80;2.57;;;;;;;;;;5073829;28;20212;-54
2022/04/05 07:07:25;;;;;;;9.33;2.53;;;;;;;;;;5073559;28;20207;-54
2022/04/05 07:09:51;;;;;;;6.60;2.20;;;;;;;;;;5073544;28;20752;-54
2022/04/05 07:12:17;;;;;;;8.40;2.07;;;;;;;;;;5073816;28;20457;-54
2022/04/05 07:14:43;;;;;;;6.33;1.97;;;;;;;;;;5073439;28;20201;-54
2022/04/05 07:17:10;;;;;;;8.10;2.60;;;;;;;;;;5073382;28;20525;-54
2022/04/05 07:19:36;;;;;;;6.97;2.00;;;;;;;;;;5073446;28;20712;-56
2022/04/05 07:22:02;;;;;;;7.17;2.10;;;;;;;;;;5069962;28;20259;-56
2022/04/05 07:24:30;;;;;;;8.33;2.63;;;;;;;;;;5073590;28;20222;-51
2022/04/05 07:26:56;;;;;;;11.47;2.67;;;;;;;;;;5073303;28;20204;-49
2022/04/05 07:29:22;;;;;;;11.23;2.80;;;;;;;;;;5073262;28;20195;-51
2022/04/05 07:31:48;;;;;;;6.53;2.50;;;;;;;;;;5072901;28;20187;-53
2022/04/05 07:34:14;;;;;;;7.80;2.20;;;;;;;;;;5073226;28;20269;-53
2022/04/05 07:36:40;;;;;;;7.03;2.20;;;;;;;;;;5072997;28;20215;-53
2022/04/05 07:39:07;;;;;;;9.43;2.63;;;;;;;;;;5072637;28;20199;-53
2022/04/05 07:41:34;;;;;;;6.87;2.27;;;;;;;;;;5072773;28;20539;-53
2022/04/05 07:44:00;;;;;;;10.47;1.93;;;;;;;;;;5072413;28;20260;-53
2022/04/05 07:46:26;;;;;;;6.83;2.70;;;;;;;;;;5072906;28;20199;-54
2022/04/05 07:48:52;;;;;;;9.37;2.40;;;;;;;;;;5072749;28;20610;-53
2022/04/05 07:51:18;;;;;;;7.83;2.57;;;;;;;;;;5071467;28;20227;-53
2022/04/05 07:53:44;;;;;;;8.50;2.00;;;;;;;;;;5072452;28;20192;-53
2022/04/05 07:56:12;;;;;;;8.80;2.20;;;;;;;;;;5072590;28;20218;-54
2022/04/05 07:58:40;;;;;;;7.50;2.10;;;;;;;;;;5072506;28;20203;-53
2022/04/05 08:01:06;;;;;;;9.03;2.13;;;;;;;;;;5071953;28;20759;-53
2022/04/05 08:03:32;;;;;;;9.20;2.43;;;;;;;;;;5072464;28;20187;-53
2022/04/05 08:05:58;;;;;;;4.83;2.13;;;;;;;;;;5071464;28;20555;-53
2022/04/05 08:08:24;;;;;;;7.30;2.03;;;;;;;;;;5072375;28;20291;-54
2022/04/05 08:10:50;;;;;;;6.33;2.43;;;;;;;;;;5072095;28;20226;-54
2022/04/05 08:13:16;;;;;;;6.57;2.00;;;;;;;;;;5072100;28;20642;-54
2022/04/05 08:15:43;;;;;;;8.50;2.50;;;;;;;;;;5072328;28;20246;-53
2022/04/05 08:18:09;;;;;;;5.07;2.17;;;;;;;;;;5072069;28;20203;-54
2022/04/05 08:20:36;;;;;;;5.50;2.07;;;;;;;;;;5071905;28;20239;-53
2022/04/05 08:23:02;;;;;;;10.30;2.57;;;;;;;;;;5071764;28;20253;-53
2022/04/05 08:25:28;;;;;;;8.37;2.37;;;;;;;;;;5071996;28;20265;-54
2022/04/05 08:27:55;;;;;;;7.20;2.17;;;;;;;;;;5071986;28;20262;-53
2022/04/05 08:30:21;;;;;;;11.67;2.03;;;;;;;;;;5071644;28;20195;-54
2022/04/05 08:32:48;;;;;;;5.83;2.37;;;;;;;;;;5071819;28;20195;-54
2022/04/05 08:35:15;;;;;;;5.77;1.90;;;;;;;;;;5071971;28;20563;-54
2022/04/05 08:37:42;;;;;;;9.33;2.17;;;;;;;;;;5071866;28;20201;-53
2022/04/05 08:40:09;;;;;;;6.17;1.93;;;;;;;;;;5072177;28;20731;-53
2022/04/05 08:42:35;;;;;;;7.70;2.63;;;;;;;;;;5069866;28;20630;-53
2022/04/05 08:45:02;;;;;;;6.30;2.03;;;;;;;;;;5071781;28;20196;-54
2022/04/05 08:47:29;;;;;;;6.13;2.27;;;;;;;;;;5071587;28;20195;-53
2022/04/05 08:49:57;;;;;;;10.67;2.37;;;;;;;;;;5071723;28;20215;-53
2022/04/05 08:52:23;;;;;;;11.17;2.87;;;;;;;;;;5071986;28;20286;-53
2022/04/05 08:54:49;;;;;;;6.67;2.33;;;;;;;;;;5071666;28;20207;-54
2022/04/05 08:57:15;;;;;;;8.20;2.50;;;;;;;;;;5072011;28;20196;-54
2022/04/05 08:59:41;;;;;;;6.27;2.00;;;;;;;;;;5071454;28;20594;-53
2022/04/05 09:02:08;;;;;;;9.87;2.50;;;;;;;;;;5071583;28;20234;-54
2022/04/05 09:04:34;;;;;;;5.63;2.27;;;;;;;;;;5071568;28;20196;-55
2022/04/05 09:07:17;;;;;;;8.43;2.30;;;;;;;;;;5071805;28;20207;-53
2022/04/05 09:09:43;;;;;;;8.57;2.37;;;;;;;;;;5071855;28;20204;-55
2022/04/05 09:12:15;;;;;;;11.50;3.00;;;;;;;;;;5071806;28;20253;-54
2022/04/05 09:14:41;;;;;;;9.13;2.60;;;;;;;;;;5071747;28;20196;-53
2022/04/05 09:17:08;;;;;;;10.77;2.50;;;;;;;;;;5073492;28;20604;-55
2022/04/05 09:19:38;;;;;;;6.77;2.40;;;;;;;;;;5075861;28;20564;-53
2022/04/05 09:22:04;;;;;;;9.10;2.40;;;;;;;;;;5075437;28;20280;-54
2022/04/05 09:24:34;;;;;;;12.67;3.17;;;;;;;;;;5075556;28;20631;-55
2022/04/05 09:27:00;;;;;;;6.73;2.40;;;;;;;;;;5075543;28;20203;-55
2022/04/05 09:29:37;;;;;;;10.60;2.80;;;;;;;;;;5075682;28;20306;-55
2022/04/05 09:32:03;;;;;;;6.33;2.30;;;;;;;;;;5075013;28;20197;-55
2022/04/05 09:34:29;;;;;;;4.07;2.07;;;;;;;;;;5075547;28;20294;-57
2022/04/05 09:36:55;;;;;;;10.80;3.80;;;;;;;;;;5075281;28;20246;-54
2022/04/05 09:39:22;;;;;;;10.53;3.93;;;;;;;;;;5075172;28;20231;-55
2022/04/05 09:41:52;;;;;;;6.27;3.60;;;;;;;;;;5074865;28;20314;-58
2022/04/05 09:44:25;;;;;;;9.07;2.87;;;;;;;;;;5075196;28;20210;-55
2022/04/05 09:47:01;;;;;;;6.60;2.57;;;;;;;;;;5075042;28;20200;-55
2022/04/05 09:49:30;;;;;;;11.73;3.67;;;;;;;;;;5075375;28;20226;-55
2022/04/05 09:51:56;;;;;;;9.33;3.10;;;;;;;;;;5075127;28;20548;-56
2022/04/05 09:54:27;;;;;;;8.93;2.87;;;;;;;;;;5075100;28;20670;-56
2022/04/05 09:56:59;;;;;;;9.23;2.63;;;;;;;;;;5075051;28;20229;-55
2022/04/05 09:59:25;;;;;;;10.63;3.57;;;;;;;;;;5074923;28;20253;-56
2022/04/05 10:01:56;;;;;;;9.00;2.83;;;;;;;;;;5074734;28;20215;-55
2022/04/05 10:04:22;;;;;;;5.40;2.67;;;;;;;;;;5074951;28;20215;-57
2022/04/05 10:06:48;;;;;;;6.13;2.77;;;;;;;;;;5074606;28;20192;-56
2022/04/05 10:09:15;;;;;;;6.10;2.90;;;;;;;;;;5074893;28;20206;-56
2022/04/05 10:11:42;;;;;;;7.27;2.97;;;;;;;;;;5074904;28;20249;-57
2022/04/05 10:14:10;;;;;;;5.03;3.00;;;;;;;;;;5074730;28;20223;-55
2022/04/05 10:16:37;;;;;;;8.23;3.20;;;;;;;;;;5074243;28;20231;-56
2022/04/05 10:19:04;;;;;;;6.43;2.87;;;;;;;;;;5074475;28;20257;-56
2022/04/05 10:21:31;;;;;;;5.17;3.00;;;;;;;;;;5074734;28;20224;-57
2022/04/05 10:23:58;;;;;;;5.30;2.57;;;;;;;;;;5074567;28;20222;-55
2022/04/05 10:26:24;;;;;;;7.57;3.10;;;;;;;;;;5074681;28;20226;-57
2022/04/05 10:28:52;;;;;;;4.13;3.33;;;;;;;;;;5073742;28;20199;-54
2022/04/05 10:31:21;;;;;;;6.70;3.30;;;;;;;;;;5074427;28;20187;-55
2022/04/05 10:33:53;;;;;;;6.93;3.33;;;;;;;;;;5074477;28;20289;-55
2022/04/05 10:36:21;;;;;;;8.87;3.37;;;;;;;;;;5074613;28;20202;-56
2022/04/05 10:39:11;;;;;;;4.93;3.27;;;;;;;;;;5074319;28;20199;-56
2022/04/05 10:41:37;;;;;;;7.17;3.77;;;;;;;;;;5074368;28;20242;-56
2022/04/05 10:44:23;;;;;;;7.00;3.57;;;;;;;;;;5074269;28;20666;-56
2022/04/05 10:46:53;;;;;;;7.07;3.93;;;;;;;;;;5074133;28;20203;-56
2022/04/05 10:49:33;;;;;;;9.33;3.37;;;;;;;;;;5074167;28;20231;-57
2022/04/05 10:52:07;;;;;;;7.13;3.40;;;;;;;;;;5074009;28;20192;-57
2022/04/05 10:54:36;;;;;;;6.10;3.50;;;;;;;;;;5073869;28;20199;-56
2022/04/05 10:57:31;;;;;;;6.70;3.37;;;;;;;;;;5073897;28;20685;-57
2022/04/05 11:00:09;;;;;;;6.30;3.30;;;;;;;;;;5073724;28;20318;-57
2022/04/05 11:02:40;;;;;;;8.77;3.73;;;;;;;;;;5073693;28;20231;-57
2022/04/05 11:05:28;;;;;;;6.67;3.20;;;;;;;;;;5073751;28;20286;-56
2022/04/05 11:08:01;;;;;;;6.03;3.60;;;;;;;;;;5073715;28;20206;-57
2022/04/05 11:10:27;;;;;;;6.97;3.70;;;;;;;;;;5073934;28;20187;-57
2022/04/05 11:13:02;;;;;;;6.80;3.80;;;;;;;;;;5071912;28;20298;-56
2022/04/05 11:15:38;;;;;;;7.53;3.80;;;;;;;;;;5073845;28;20573;-59
2022/04/05 11:18:05;;;;;;;6.83;3.77;;;;;;;;;;5073255;28;20246;-58
2022/04/05 11:20:32;;;;;;;7.37;3.90;;;;;;;;;;5073792;28;20196;-56
2022/04/05 11:23:00;;;;;;;7.43;4.07;;;;;;;;;;5073458;28;20635;-58
2022/04/05 11:25:27;;;;;;;6.40;3.83;;;;;;;;;;5073628;28;20215;-57
2022/04/05 11:27:53;;;;;;;9.77;4.07;;;;;;;;;;5073431;28;20203;-57
2022/04/05 11:30:37;;;;;;;9.47;3.40;;;;;;;;;;5073622;28;20191;-56
2022/04/05 11:33:22;;;;;;;7.93;3.57;;;;;;;;;;5073329;28;20226;-56
2022/04/05 11:35:50;;;;;;;7.30;3.57;;;;;;;;;;5073338;28;20219;-56
2022/04/05 11:38:27;;;;;;;10.70;4.57;;;;;;;;;;5073286;28;20337;-56
2022/04/05 11:40:54;;;;;;;5.13;3.60;;;;;;;;;;5072166;28;20241;-56
2022/04/05 11:43:24;;;;;;;6.10;3.37;;;;;;;;;;5073067;28;20229;-57
2022/04/05 11:45:52;;;;;;;6.97;4.13;;;;;;;;;;5072982;28;20543;-56
2022/04/05 11:48:18;;;;;;;6.67;3.83;;;;;;;;;;5073021;28;20657;-56
2022/04/05 11:50:44;;;;;;;7.37;4.20;;;;;;;;;;5072879;28;20209;-56
2022/04/05 11:53:21;;;;;;;8.80;4.27;;;;;;;;;;5072956;28;20200;-56
2022/04/05 11:56:02;;;;;;;7.07;3.83;;;;;;;;;;5072626;28;20203;-56
2022/04/05 11:58:30;;;;;;;6.73;4.00;;;;;;;;;;5072923;28;20290;-56
2022/04/05 12:00:57;;;;;;;5.63;3.50;;;;;;;;;;5072663;28;20240;-57
2022/04/05 12:03:23;;;;;;;4.87;3.67;;;;;;;;;;5072624;28;20227;-56
2022/04/05 12:05:49;;;;;;;6.07;4.53;;;;;;;;;;5072360;28;20199;-57
2022/04/05 12:08:16;;;;;;;7.37;4.10;;;;;;;;;;5072562;28;20200;-57
2022/04/05 12:10:44;;;;;;;9.47;7.03;;;;;;;;;;5072557;28;20235;-56
2022/04/05 12:13:10;;;;;;;5.03;3.80;;;;;;;;;;5072563;28;20273;-57
2022/04/05 12:15:37;;;;;;;6.90;5.07;;;;;;;;;;5072544;28;20226;-57
2022/04/05 12:18:19;;;;;;;13.50;12.10;;;;;;;;;;5072149;28;20206;-55
2022/04/05 12:20:55;;;;;;;5.50;4.27;;;;;;;;;;5072046;28;20215;-57
2022/04/05 12:23:22;;;;;;;4.40;3.73;;;;;;;;;;5072350;28;20227;-55
2022/04/05 12:26:15;;;;;;;6.00;5.30;;;;;;;;;;5072315;28;20208;-55
2022/04/05 12:28:44;;;;;;;8.20;3.80;;;;;;;;;;5036175;28;20259;-56
2022/04/05 12:31:15;;;;;;;5.83;5.37;;;;;;;;;;5072101;28;20207;-55
2022/04/05 12:33:52;;;;;;;5.60;3.80;;;;;;;;;;5070905;28;20289;-56
2022/04/05 12:36:19;;;;;;;4.60;3.40;;;;;;;;;;5072379;28;20249;-56
2022/04/05 12:38:45;;;;;;;4.37;3.10;;;;;;;;;;5072309;28;20200;-55
2022/04/05 12:41:13;;;;;;;3.57;3.27;;;;;;;;;;5072089;28;20206;-54
2022/04/05 12:43:39;;;;;;;3.33;3.03;;;;;;;;;;5071762;28;20235;-55
2022/04/05 12:46:11;;;;;;;3.77;2.77;;;;;;;;;;5071713;28;20211;-55
2022/04/05 12:48:37;;;;;;;3.23;2.40;;;;;;;;;;5072014;28;20602;-55
2022/04/05 12:51:04;;;;;;;2.30;2.10;;;;;;;;;;5071703;28;20253;-55
2022/04/05 12:53:34;;;;;;;2.40;1.80;;;;;;;;;;5071943;28;20188;-54
2022/04/05 12:56:01;;;;;;;2.27;2.07;;;;;;;;;;5072086;28;20204;-55
2022/04/05 12:58:38;;;;;;;2.40;2.20;;;;;;;;;;5071895;28;20674;-55
2022/04/05 13:01:19;;;;;;;2.83;2.37;;;;;;;;;;5071568;28;20231;-55
2022/04/05 13:03:46;;;;;;;2.60;2.33;;;;;;;;;;5071849;28;20211;-53
2022/04/05 13:06:22;;;;;;;50.73;41.33;;;;;;;;;;5071681;28;20203;-54
2022/04/05 13:08:49;;;;;;;21.20;14.47;;;;;;;;;;5071588;28;20195;-54
2022/04/05 13:11:22;;;;;;;2.60;2.40;;;;;;;;;;5071887;28;20195;-54
2022/04/05 13:13:49;;;;;;;2.67;2.47;;;;;;;;;;5071803;28;20195;-55
2022/04/05 13:16:15;;;;;;;2.40;2.20;;;;;;;;;;5072037;28;20203;-55
2022/04/05 13:18:43;;;;;;;2.70;2.50;;;;;;;;;;5071793;28;20277;-54
2022/04/05 13:21:10;;;;;;;2.30;2.10;;;;;;;;;;5071780;28;20200;-54
2022/04/05 13:23:37;;;;;;;2.33;2.17;;;;;;;;;;5071578;28;20377;-55
2022/04/05 13:26:05;;;;;;;2.90;2.63;;;;;;;;;;5071607;28;20187;-54
2022/04/05 13:28:32;;;;;;;2.40;2.20;;;;;;;;;;5071669;28;20608;-54
2022/04/05 13:31:05;;;;;;;2.63;2.37;;;;;;;;;;5071684;28;20611;-55
2022/04/05 13:33:31;;;;;;;2.50;1.90;;;;;;;;;;5071626;28;20202;-54
2022/04/05 13:35:59;;;;;;;3.67;2.43;;;;;;;;;;5069803;28;20196;-54
2022/04/05 13:38:26;;;;;;;2.20;2.00;;;;;;;;;;5071578;28;20203;-55
2022/04/05 13:40:53;;;;;;;2.60;2.40;;;;;;;;;;5071379;28;20199;-55
2022/04/05 13:43:19;;;;;;;2.60;2.40;;;;;;;;;;5071551;28;20227;-56
2022/04/05 13:45:45;;;;;;;2.87;2.43;;;;;;;;;;5071454;28;20195;-54
2022/04/05 13:48:11;;;;;;;3.93;2.70;;;;;;;;;;5071473;28;20200;-55
2022/04/05 13:50:37;;;;;;;2.80;2.60;;;;;;;;;;5071496;28;20200;-55
2022/04/05 13:53:05;;;;;;;3.60;2.97;;;;;;;;;;5071377;28;20257;-55
2022/04/05 13:55:31;;;;;;;3.20;2.50;;;;;;;;;;5071234;28;20219;-53
2022/04/05 13:57:57;;;;;;;2.67;2.47;;;;;;;;;;5071236;28;20253;-55
2022/04/05 14:00:23;;;;;;;3.63;2.80;;;;;;;;;;5071196;28;20235;-55
2022/04/05 14:02:52;;;;;;;2.90;2.47;;;;;;;;;;5071166;28;20249;-56
2022/04/05 14:05:18;;;;;;;3.53;2.40;;;;;;;;;;5074421;28;20273;-55
2022/04/05 14:07:44;;;;;;;3.00;2.40;;;;;;;;;;5075023;28;20221;-54
2022/04/05 14:10:14;;;;;;;2.60;2.40;;;;;;;;;;5074848;28;20606;-54
2022/04/05 14:12:41;;;;;;;2.60;2.40;;;;;;;;;;5074838;28;20196;-54
2022/04/05 14:15:07;;;;;;;3.10;2.80;;;;;;;;;;5074645;28;20196;-55
2022/04/05 14:17:37;;;;;;;2.73;2.53;;;;;;;;;;5074815;28;20222;-54
2022/04/05 14:20:03;;;;;;;2.93;2.73;;;;;;;;;;5074245;28;20207;-54
2022/04/05 14:22:29;;;;;;;4.83;4.33;;;;;;;;;;5074566;28;20227;-55
2022/04/05 14:24:55;;;;;;;3.90;3.50;;;;;;;;;;5074305;28;20597;-54
2022/04/05 14:27:22;;;;;;;3.20;2.90;;;;;;;;;;5074748;28;20196;-54
2022/04/05 14:29:48;;;;;;;3.13;2.93;;;;;;;;;;5074445;28;20207;-54
2022/04/05 14:32:15;;;;;;;3.00;2.80;;;;;;;;;;5074269;28;20650;-52
2022/04/05 14:34:41;;;;;;;3.40;3.10;;;;;;;;;;5074344;28;20694;-55
2022/04/05 14:37:07;;;;;;;4.07;3.77;;;;;;;;;;5074244;28;20622;-54
2022/04/05 14:39:33;;;;;;;3.30;3.00;;;;;;;;;;5074591;28;20237;-55
2022/04/05 14:42:00;;;;;;;2.90;2.70;;;;;;;;;;5074034;28;20226;-55
2022/04/05 14:44:27;;;;;;;3.20;3.00;;;;;;;;;;5074420;28;20206;-55